createdAt,value
2018-02-14T00:00:26.047Z,4.30
2018-02-14T00:01:25.993Z,4.50
2018-02-14T00:02:25.951Z,4.10
2018-02-14T00:03:25.892Z,4.80
2018-02-14T00:04:25.842Z,4.70
2018-02-14T00:05:25.794Z,4.60
2018-02-14T00:06:25.744Z,4.10
2018-02-14T00:07:25.690Z,4.50
2018-02-14T00:08:25.646Z,4.50
2018-02-14T00:09:25.592Z,4.60
2018-02-14T00:10:25.541Z,4.80
2018-02-14T00:11:25.495Z,4.90
2018-02-14T00:12:25.445Z,4.90
2018-02-14T00:13:25.390Z,4.60
2018-02-14T00:14:25.341Z,5.00
2018-02-14T00:15:25.289Z,4.80
2018-02-14T00:16:25.242Z,4.60
2018-02-14T00:17:25.191Z,5.00
2018-02-14T00:18:25.146Z,5.10
2018-02-14T00:19:25.091Z,4.60
2018-02-14T00:20:25.041Z,5.10
2018-02-14T00:21:24.991Z,5.10
2018-02-14T00:22:24.941Z,5.20
2018-02-14T00:23:24.890Z,4.90
2018-02-14T00:24:24.841Z,5.20
2018-02-14T00:25:24.788Z,5.60
2018-02-14T00:26:24.741Z,5.50
2018-02-14T00:27:24.690Z,5.40
2018-02-14T00:28:24.641Z,5.30
2018-02-14T00:29:24.588Z,5.10
2018-02-14T00:30:24.536Z,5.30
2018-02-14T00:31:24.490Z,5.10
2018-02-14T00:32:24.436Z,5.40
2018-02-14T00:33:24.388Z,5.00
2018-02-14T00:34:24.334Z,5.40
2018-02-14T00:35:24.285Z,5.40
2018-02-14T00:36:24.237Z,5.20
2018-02-14T00:37:24.184Z,5.30
2018-02-14T00:38:24.135Z,5.70
2018-02-14T00:39:24.086Z,5.20
2018-02-14T00:40:24.038Z,5.70
2018-02-14T00:41:23.986Z,5.60
2018-02-14T00:42:23.932Z,5.40
2018-02-14T00:43:23.884Z,5.60
2018-02-14T00:44:23.835Z,5.20
2018-02-14T00:45:23.783Z,5.50
2018-02-14T00:46:23.733Z,5.20
2018-02-14T00:47:23.684Z,6.00
2018-02-14T00:48:23.633Z,5.40
2018-02-14T00:49:23.581Z,5.10
2018-02-14T00:50:23.533Z,5.90
2018-02-14T00:51:23.485Z,5.60
2018-02-14T00:52:23.432Z,5.80
2018-02-14T00:53:23.381Z,5.40
2018-02-14T00:54:23.333Z,5.70
2018-02-14T00:55:23.283Z,5.50
2018-02-14T00:56:23.231Z,5.20
2018-02-14T00:57:23.180Z,5.20
2018-02-14T00:58:23.128Z,5.40
2018-02-14T00:59:23.082Z,5.10
2018-02-14T01:00:23.028Z,5.60
2018-02-14T01:01:22.981Z,5.50
2018-02-14T01:02:22.927Z,5.30
2018-02-14T01:03:22.876Z,5.70
2018-02-14T01:04:22.828Z,5.70
2018-02-14T01:05:22.780Z,6.10
2018-02-14T01:06:22.725Z,5.90
2018-02-14T01:07:22.676Z,5.30
2018-02-14T01:08:22.627Z,5.90
2018-02-14T01:09:22.577Z,5.60
2018-02-14T01:10:22.529Z,5.90
2018-02-14T01:11:22.475Z,5.80
2018-02-14T01:12:22.428Z,5.60
2018-02-14T01:13:22.377Z,5.90
2018-02-14T01:14:22.325Z,6.00
2018-02-14T01:15:22.276Z,5.50
2018-02-14T01:16:22.223Z,6.10
2018-02-14T01:17:22.174Z,5.30
2018-02-14T01:18:22.122Z,6.30
2018-02-14T01:19:22.077Z,5.80
2018-02-14T01:20:22.022Z,6.20
2018-02-14T01:21:21.975Z,5.90
2018-02-14T01:22:21.922Z,6.20
2018-02-14T01:23:21.875Z,5.70
2018-02-14T01:24:21.824Z,5.80
2018-02-14T01:25:21.772Z,6.30
2018-02-14T01:26:21.724Z,6.10
2018-02-14T01:27:21.668Z,6.20
2018-02-14T01:28:21.619Z,6.00
2018-02-14T01:29:21.571Z,5.70
2018-02-14T01:30:21.522Z,5.90
2018-02-14T01:31:21.472Z,6.00
2018-02-14T01:32:21.418Z,6.00
2018-02-14T01:33:21.373Z,5.50
2018-02-14T01:34:21.319Z,5.60
2018-02-14T01:35:21.267Z,6.10
2018-02-14T01:36:21.219Z,5.80
2018-02-14T01:37:21.165Z,6.10
2018-02-14T01:38:21.124Z,5.60
2018-02-14T01:39:21.068Z,6.10
2018-02-14T01:40:21.016Z,5.80
2018-02-14T01:41:20.966Z,6.30
2018-02-14T01:42:20.918Z,5.70
2018-02-14T01:43:20.871Z,6.00
2018-02-14T01:44:20.815Z,5.70
2018-02-14T01:45:20.764Z,6.20
2018-02-14T01:46:20.719Z,5.40
2018-02-14T01:47:20.667Z,5.80
2018-02-14T01:48:20.622Z,6.20
2018-02-14T01:49:20.566Z,5.90
2018-02-14T01:50:20.515Z,6.60
2018-02-14T01:51:20.466Z,6.00
2018-02-14T01:52:20.411Z,5.80
2018-02-14T01:53:20.364Z,6.50
2018-02-14T01:54:20.310Z,6.30
2018-02-14T01:55:20.264Z,6.40
2018-02-14T01:56:20.211Z,5.60
2018-02-14T01:57:20.164Z,6.40
2018-02-14T01:58:20.113Z,6.10
2018-02-14T01:59:20.061Z,6.30
2018-02-14T02:00:20.014Z,6.40
2018-02-14T02:01:19.961Z,5.90
2018-02-14T02:02:19.915Z,6.30
2018-02-14T02:03:19.860Z,6.70
2018-02-14T02:04:19.810Z,6.00
2018-02-14T02:05:19.764Z,6.80
2018-02-14T02:06:19.711Z,6.20
2018-02-14T02:07:19.660Z,6.00
2018-02-14T02:09:05.554Z,5.80
2018-02-14T02:09:19.545Z,6.90
2018-02-14T02:10:19.497Z,6.40
2018-02-14T02:11:19.454Z,6.40
2018-02-14T02:12:19.395Z,6.40
2018-02-14T02:13:19.345Z,6.60
2018-02-14T02:14:19.300Z,6.50
2018-02-14T02:15:19.246Z,6.10
2018-02-14T02:16:19.196Z,6.90
2018-02-14T02:17:19.144Z,6.30
2018-02-14T02:18:19.096Z,7.10
2018-02-14T02:19:19.043Z,7.20
2018-02-14T02:20:19.000Z,7.00
2018-02-14T02:21:18.956Z,6.60
2018-02-14T02:22:18.908Z,6.70
2018-02-14T02:23:18.856Z,7.10
2018-02-14T02:24:18.803Z,6.80
2018-02-14T02:25:18.753Z,6.80
2018-02-14T02:26:18.703Z,6.70
2018-02-14T02:27:18.656Z,6.80
2018-02-14T02:28:18.602Z,7.00
2018-02-14T02:29:18.553Z,7.20
2018-02-14T02:30:18.504Z,6.80
2018-02-14T02:31:18.451Z,7.20
2018-02-14T02:32:18.405Z,7.30
2018-02-14T02:33:18.352Z,7.30
2018-02-14T02:34:18.299Z,6.70
2018-02-14T02:35:18.250Z,7.10
2018-02-14T02:36:18.203Z,7.10
2018-02-14T02:37:18.149Z,6.80
2018-02-14T02:38:18.103Z,7.20
2018-02-14T02:39:18.051Z,7.50
2018-02-14T02:40:18.005Z,7.10
2018-02-14T02:41:17.947Z,7.10
2018-02-14T02:42:17.900Z,7.50
2018-02-14T02:43:17.846Z,7.70
2018-02-14T02:44:17.797Z,7.20
2018-02-14T02:45:17.746Z,7.70
2018-02-14T02:46:17.696Z,7.30
2018-02-14T02:47:17.644Z,7.10
2018-02-14T02:48:17.597Z,7.10
2018-02-14T02:49:17.541Z,7.70
2018-02-14T02:50:17.492Z,7.70
2018-02-14T02:51:17.443Z,7.60
2018-02-14T02:52:17.397Z,7.40
2018-02-14T02:53:17.343Z,7.20
2018-02-14T02:54:17.289Z,7.10
2018-02-14T02:55:17.242Z,7.50
2018-02-14T02:56:17.196Z,7.50
2018-02-14T02:57:17.140Z,8.10
2018-02-14T02:58:17.089Z,7.30
2018-02-14T02:59:17.039Z,7.20
2018-02-14T03:00:16.990Z,7.80
2018-02-14T03:01:16.938Z,8.00
2018-02-14T03:02:16.891Z,7.60
2018-02-14T03:03:16.842Z,7.30
2018-02-14T03:04:16.800Z,7.10
2018-02-14T03:05:16.744Z,7.60
2018-02-14T03:06:16.688Z,7.70
2018-02-14T03:07:16.639Z,7.80
2018-02-14T03:08:16.592Z,7.40
2018-02-14T03:09:16.537Z,7.20
2018-02-14T03:10:16.492Z,7.70
2018-02-14T03:11:16.434Z,8.60
2018-02-14T03:12:16.388Z,8.20
2018-02-14T03:13:16.332Z,7.20
2018-02-14T03:14:16.285Z,7.90
2018-02-14T03:15:16.235Z,8.00
2018-02-14T03:16:16.185Z,8.00
2018-02-14T03:17:16.131Z,7.60
2018-02-14T03:18:16.085Z,7.60
2018-02-14T03:19:16.036Z,7.80
2018-02-14T03:20:15.989Z,7.60
2018-02-14T03:21:15.933Z,8.00
2018-02-14T03:22:15.880Z,7.80
2018-02-14T03:23:15.831Z,7.70
2018-02-14T03:24:15.779Z,8.10
2018-02-14T03:25:15.728Z,8.00
2018-02-14T03:26:15.680Z,7.50
2018-02-14T03:27:15.628Z,8.10
2018-02-14T03:28:15.730Z,8.50
2018-02-14T03:29:15.527Z,7.90
2018-02-14T03:30:15.479Z,8.30
2018-02-14T03:31:15.428Z,8.10
2018-02-14T03:32:15.380Z,7.80
2018-02-14T03:33:15.329Z,8.20
2018-02-14T03:34:15.276Z,8.00
2018-02-14T03:35:15.225Z,8.40
2018-02-14T03:36:15.174Z,8.50
2018-02-14T03:37:15.127Z,7.70
2018-02-14T03:38:15.073Z,8.20
2018-02-14T03:39:15.023Z,8.00
2018-02-14T03:40:14.977Z,8.40
2018-02-14T03:41:14.925Z,8.10
2018-02-14T03:42:14.874Z,8.40
2018-02-14T03:43:14.823Z,8.40
2018-02-14T03:44:14.776Z,8.80
2018-02-14T03:45:14.727Z,8.40
2018-02-14T03:46:14.669Z,8.50
2018-02-14T03:47:14.621Z,8.30
2018-02-14T03:48:14.573Z,8.80
2018-02-14T03:49:14.520Z,8.30
2018-02-14T03:50:14.469Z,7.90
2018-02-14T03:51:14.426Z,7.50
2018-02-14T03:52:14.368Z,8.20
2018-02-14T03:53:14.319Z,8.40
2018-02-14T03:54:14.266Z,7.90
2018-02-14T03:55:14.217Z,8.90
2018-02-14T03:56:14.170Z,8.80
2018-02-14T03:57:14.115Z,8.60
2018-02-14T03:58:14.062Z,8.60
2018-02-14T03:59:14.016Z,8.50
2018-02-14T04:00:13.962Z,8.90
2018-02-14T04:01:13.914Z,8.50
2018-02-14T04:02:13.864Z,8.40
2018-02-14T04:03:13.815Z,8.20
2018-02-14T04:04:13.765Z,8.60
2018-02-14T04:05:13.710Z,8.30
2018-02-14T04:06:13.664Z,7.90
2018-02-14T04:07:13.614Z,8.30
2018-02-14T04:08:13.562Z,8.60
2018-02-14T04:09:13.510Z,8.40
2018-02-14T04:10:13.460Z,8.40
2018-02-14T04:11:13.409Z,8.40
2018-02-14T04:12:13.366Z,8.70
2018-02-14T04:13:13.307Z,8.20
2018-02-14T04:14:13.258Z,7.90
2018-02-14T04:15:13.207Z,8.40
2018-02-14T04:16:13.156Z,7.90
2018-02-14T04:17:13.104Z,8.20
2018-02-14T04:18:13.055Z,8.30
2018-02-14T04:19:13.008Z,8.20
2018-02-14T04:20:12.952Z,8.70
2018-02-14T04:21:12.905Z,8.30
2018-02-14T04:22:12.852Z,8.50
2018-02-14T04:23:12.804Z,8.60
2018-02-14T04:24:12.752Z,8.50
2018-02-14T04:25:12.705Z,8.50
2018-02-14T04:26:12.656Z,8.70
2018-02-14T04:27:12.600Z,8.70
2018-02-14T04:28:12.549Z,9.30
2018-02-14T04:29:12.509Z,8.60
2018-02-14T04:30:12.451Z,10.10
2018-02-14T04:31:12.402Z,9.20
2018-02-14T04:32:12.358Z,9.40
2018-02-14T04:33:12.304Z,9.90
2018-02-14T04:34:12.257Z,8.90
2018-02-14T04:35:12.198Z,9.00
2018-02-14T04:36:12.149Z,8.90
2018-02-14T04:37:12.096Z,8.90
2018-02-14T04:38:12.045Z,9.30
2018-02-14T04:39:11.993Z,9.70
2018-02-14T04:40:11.943Z,9.50
2018-02-14T04:41:11.893Z,9.20
2018-02-14T04:42:11.843Z,9.20
2018-02-14T04:43:11.798Z,9.00
2018-02-14T04:44:11.744Z,8.80
2018-02-14T04:45:11.690Z,9.10
2018-02-14T04:46:11.639Z,7.90
2018-02-14T04:47:11.594Z,8.80
2018-02-14T04:48:11.539Z,8.60
2018-02-14T04:49:11.486Z,8.50
2018-02-14T04:50:11.437Z,8.20
2018-02-14T04:51:11.391Z,8.40
2018-02-14T04:52:11.336Z,7.50
2018-02-14T04:53:11.286Z,7.70
2018-02-14T04:54:11.238Z,7.70
2018-02-14T04:55:11.186Z,8.00
2018-02-14T04:56:11.137Z,7.70
2018-02-14T04:57:11.084Z,7.30
2018-02-14T04:58:11.033Z,7.60
2018-02-14T04:59:10.986Z,7.60
2018-02-14T05:00:10.933Z,8.10
2018-02-14T05:01:10.885Z,7.60
2018-02-14T05:02:10.842Z,7.70
2018-02-14T05:03:10.790Z,7.50
2018-02-14T05:04:10.730Z,7.60
2018-02-14T05:05:10.679Z,7.30
2018-02-14T05:06:10.662Z,7.70
2018-02-14T05:07:10.594Z,8.00
2018-02-14T05:08:10.532Z,7.60
2018-02-14T05:09:10.477Z,7.60
2018-02-14T05:10:10.429Z,7.60
2018-02-14T05:11:10.382Z,8.20
2018-02-14T05:12:10.324Z,8.00
2018-02-14T05:13:10.278Z,8.00
2018-02-14T05:14:10.222Z,7.80
2018-02-14T05:15:10.172Z,7.90
2018-02-14T05:16:10.124Z,7.70
2018-02-14T05:17:10.076Z,7.80
2018-02-14T05:18:10.026Z,8.10
2018-02-14T05:19:09.971Z,8.10
2018-02-14T05:20:09.931Z,7.50
2018-02-14T05:21:09.873Z,8.50
2018-02-14T05:22:09.821Z,8.20
2018-02-14T05:23:09.779Z,7.90
2018-02-14T05:24:09.720Z,8.30
2018-02-14T05:25:09.670Z,7.70
2018-02-14T05:26:09.620Z,7.80
2018-02-14T05:27:09.572Z,8.60
2018-02-14T05:28:09.517Z,8.80
2018-02-14T05:29:09.471Z,8.50
2018-02-14T05:30:09.420Z,8.20
2018-02-14T05:31:09.366Z,9.00
2018-02-14T05:32:09.314Z,8.50
2018-02-14T05:33:09.263Z,7.80
2018-02-14T05:34:09.211Z,8.50
2018-02-14T05:35:09.164Z,8.80
2018-02-14T05:36:09.111Z,8.80
2018-02-14T05:37:09.062Z,8.60
2018-02-14T05:38:09.011Z,8.70
2018-02-14T05:39:08.964Z,9.00
2018-02-14T05:40:08.916Z,8.80
2018-02-14T05:41:08.867Z,8.20
2018-02-14T05:42:08.807Z,9.00
2018-02-14T05:43:08.756Z,8.70
2018-02-14T05:44:08.707Z,9.10
2018-02-14T05:45:08.655Z,8.60
2018-02-14T05:46:08.603Z,9.20
2018-02-14T05:47:08.555Z,9.40
2018-02-14T05:48:08.505Z,8.70
2018-02-14T05:49:08.452Z,9.20
2018-02-14T05:50:08.401Z,8.80
2018-02-14T05:51:08.351Z,8.30
2018-02-14T05:52:08.300Z,8.70
2018-02-14T05:53:08.250Z,9.30
2018-02-14T05:54:08.211Z,9.30
2018-02-14T05:55:08.150Z,9.20
2018-02-14T05:56:08.098Z,8.80
2018-02-14T05:57:08.045Z,10.20
2018-02-14T05:58:07.997Z,10.00
2018-02-14T05:59:07.945Z,9.30
2018-02-14T06:00:07.894Z,9.10
2018-02-14T06:01:07.842Z,9.70
2018-02-14T06:02:07.794Z,9.30
2018-02-14T06:03:07.746Z,9.80
2018-02-14T06:04:07.705Z,9.30
2018-02-14T06:05:07.646Z,8.90
2018-02-14T06:06:07.593Z,9.80
2018-02-14T06:07:07.536Z,10.00
2018-02-14T06:08:07.488Z,9.70
2018-02-14T06:09:07.435Z,9.20
2018-02-14T06:10:07.388Z,9.70
2018-02-14T06:11:07.334Z,9.40
2018-02-14T06:12:07.288Z,10.40
2018-02-14T06:13:07.241Z,9.60
2018-02-14T06:14:07.186Z,9.80
2018-02-14T06:15:07.131Z,9.50
2018-02-14T06:16:07.080Z,10.00
2018-02-14T06:17:07.031Z,9.60
2018-02-14T06:18:06.985Z,9.70
2018-02-14T06:19:06.933Z,10.50
2018-02-14T06:20:06.882Z,10.20
2018-02-14T06:21:06.830Z,10.00
2018-02-14T06:22:06.791Z,10.00
2018-02-14T06:23:06.724Z,9.50
2018-02-14T06:24:06.678Z,9.40
2018-02-14T06:25:06.628Z,10.70
2018-02-14T06:26:06.582Z,9.30
2018-02-14T06:27:06.532Z,9.80
2018-02-14T06:28:06.475Z,9.70
2018-02-14T06:29:06.419Z,9.70
2018-02-14T06:30:06.372Z,10.50
2018-02-14T06:31:06.320Z,10.20
2018-02-14T06:32:06.272Z,10.00
2018-02-14T06:33:06.218Z,10.20
2018-02-14T06:34:06.169Z,9.70
2018-02-14T06:35:06.118Z,9.50
2018-02-14T06:36:06.064Z,9.30
2018-02-14T06:37:06.019Z,10.30
2018-02-14T06:38:05.965Z,10.10
2018-02-14T06:39:05.913Z,9.90
2018-02-14T06:40:05.867Z,10.10
2018-02-14T06:41:05.813Z,10.20
2018-02-14T06:42:05.758Z,10.40
2018-02-14T06:43:05.715Z,11.10
2018-02-14T06:44:05.658Z,10.10
2018-02-14T06:45:05.607Z,10.50
2018-02-14T06:46:05.556Z,10.80
2018-02-14T06:47:05.508Z,10.10
2018-02-14T06:48:05.464Z,9.80
2018-02-14T06:49:05.404Z,10.60
2018-02-14T06:50:05.354Z,10.60
2018-02-14T06:51:05.306Z,11.10
2018-02-14T06:52:05.253Z,10.90
2018-02-14T06:53:05.200Z,11.30
2018-02-14T06:54:05.148Z,11.40
2018-02-14T06:55:05.102Z,11.40
2018-02-14T06:56:05.052Z,11.80
2018-02-14T06:57:04.996Z,11.90
2018-02-14T06:58:04.948Z,11.30
2018-02-14T06:59:04.898Z,11.90
2018-02-14T07:00:04.847Z,12.10
2018-02-14T07:01:04.794Z,11.50
2018-02-14T07:02:04.760Z,11.70
2018-02-14T07:03:04.693Z,11.30
2018-02-14T07:04:04.643Z,11.50
2018-02-14T07:05:04.589Z,11.60
2018-02-14T07:06:04.542Z,12.00
2018-02-14T07:07:04.490Z,12.20
2018-02-14T07:08:04.439Z,12.90
2018-02-14T07:09:04.388Z,12.10
2018-02-14T07:10:04.337Z,12.80
2018-02-14T07:11:04.287Z,11.60
2018-02-14T07:12:04.236Z,12.30
2018-02-14T07:13:04.185Z,12.20
2018-02-14T07:14:04.137Z,12.00
2018-02-14T07:15:04.086Z,12.10
2018-02-14T07:16:04.038Z,11.70
2018-02-14T07:17:03.982Z,12.80
2018-02-14T07:18:03.930Z,13.30
2018-02-14T07:19:03.883Z,12.80
2018-02-14T07:20:03.832Z,12.50
2018-02-14T07:21:03.780Z,12.40
2018-02-14T07:22:03.731Z,12.60
2018-02-14T07:23:03.679Z,12.60
2018-02-14T07:24:03.626Z,12.40
2018-02-14T07:25:03.577Z,12.70
2018-02-14T07:26:03.527Z,12.90
2018-02-14T07:27:03.475Z,13.10
2018-02-14T07:28:03.425Z,12.80
2018-02-14T07:29:03.372Z,13.10
2018-02-14T07:30:03.323Z,13.30
2018-02-14T07:31:03.271Z,12.80
2018-02-14T07:32:03.223Z,13.50
2018-02-14T07:33:03.174Z,13.50
2018-02-14T07:34:03.133Z,13.50
2018-02-14T07:35:03.079Z,13.30
2018-02-14T07:36:03.018Z,13.00
2018-02-14T07:37:02.966Z,12.60
2018-02-14T07:38:02.912Z,12.10
2018-02-14T07:39:02.864Z,12.50
2018-02-14T07:40:02.815Z,13.90
2018-02-14T07:41:02.761Z,12.60
2018-02-14T07:43:02.658Z,12.90
2018-02-14T07:44:02.609Z,13.60
2018-02-14T07:45:02.561Z,12.90
2018-02-14T07:46:02.506Z,13.30
2018-02-14T07:47:02.455Z,13.40
2018-02-14T07:48:02.404Z,12.70
2018-02-14T07:49:02.353Z,13.30
2018-02-14T07:50:02.301Z,13.30
2018-02-14T07:51:02.261Z,12.70
2018-02-14T07:52:02.199Z,13.60
2018-02-14T07:53:02.148Z,13.30
2018-02-14T07:54:02.100Z,13.10
2018-02-14T07:55:02.053Z,13.40
2018-02-14T07:56:01.999Z,13.10
2018-02-14T07:57:01.950Z,12.70
2018-02-14T07:58:01.903Z,13.50
2018-02-14T07:59:01.846Z,12.90
2018-02-14T08:00:01.798Z,13.20
2018-02-14T08:01:01.745Z,12.90
2018-02-14T08:02:01.698Z,12.80
2018-02-14T08:03:01.644Z,12.70
2018-02-14T08:04:01.599Z,13.60
2018-02-14T08:05:01.549Z,13.50
2018-02-14T08:06:01.509Z,13.00
2018-02-14T08:07:01.444Z,12.30
2018-02-14T08:08:01.393Z,13.20
2018-02-14T08:09:01.342Z,13.10
2018-02-14T08:10:01.292Z,12.70
2018-02-14T08:11:01.242Z,13.30
2018-02-14T08:12:01.198Z,13.00
2018-02-14T08:13:01.143Z,13.20
2018-02-14T08:14:01.093Z,12.50
2018-02-14T08:15:01.045Z,12.70
2018-02-14T08:16:00.991Z,13.00
2018-02-14T08:17:00.983Z,12.30
2018-02-14T08:18:00.890Z,11.80
2018-02-14T08:19:00.848Z,12.80
2018-02-14T08:20:00.795Z,12.20
2018-02-14T08:21:00.742Z,11.90
2018-02-14T08:22:00.696Z,12.70
2018-02-14T08:23:00.644Z,12.80
2018-02-14T08:24:00.598Z,12.90
2018-02-14T08:25:00.541Z,12.10
2018-02-14T08:26:00.500Z,11.90
2018-02-14T08:27:00.452Z,12.70
2018-02-14T08:28:00.433Z,12.00
2018-02-14T08:29:00.342Z,11.90
2018-02-14T08:30:00.297Z,12.60
2018-02-14T08:31:00.252Z,12.90
2018-02-14T08:32:00.204Z,12.70
2018-02-14T08:33:00.146Z,11.60
2018-02-14T08:34:00.095Z,11.10
2018-02-14T08:35:00.062Z,12.00
2018-02-14T08:35:59.996Z,11.80
2018-02-14T08:36:59.946Z,12.10
2018-02-14T08:37:59.901Z,11.60
2018-02-14T08:38:59.849Z,11.20
2018-02-14T08:39:59.799Z,12.00
2018-02-14T08:40:59.751Z,12.10
2018-02-14T08:41:59.706Z,11.00
2018-02-14T08:42:59.654Z,11.10
2018-02-14T08:43:59.603Z,11.70
2018-02-14T08:44:59.552Z,11.50
2018-02-14T08:45:59.502Z,12.10
2018-02-14T08:46:59.455Z,11.70
2018-02-14T08:47:59.406Z,11.90
2018-02-14T08:48:59.357Z,10.70
2018-02-14T08:49:59.311Z,11.40
2018-02-14T08:50:59.257Z,10.90
2018-02-14T08:51:59.210Z,11.40
2018-02-14T08:52:59.160Z,12.20
2018-02-14T08:53:59.109Z,11.80
2018-02-14T08:54:59.065Z,11.80
2018-02-14T08:55:59.014Z,11.40
2018-02-14T08:56:58.965Z,11.30
2018-02-14T08:57:58.915Z,12.40
2018-02-14T08:58:58.864Z,11.60
2018-02-14T08:59:58.821Z,11.60
2018-02-14T09:00:58.766Z,12.20
2018-02-14T09:01:58.718Z,11.90
2018-02-14T09:02:58.670Z,11.80
2018-02-14T09:03:58.627Z,11.50
2018-02-14T09:04:58.574Z,11.60
2018-02-14T09:05:58.524Z,11.30
2018-02-14T09:06:58.478Z,11.70
2018-02-14T09:07:58.426Z,12.00
2018-02-14T09:08:58.379Z,12.20
2018-02-14T09:09:58.330Z,11.60
2018-02-14T09:10:58.283Z,11.70
2018-02-14T09:11:58.234Z,11.30
2018-02-14T09:12:58.185Z,11.40
2018-02-14T09:13:58.139Z,11.80
2018-02-14T09:14:58.083Z,11.30
2018-02-14T09:15:58.038Z,10.80
2018-02-14T09:16:57.986Z,11.60
2018-02-14T09:17:57.941Z,11.20
2018-02-14T09:18:57.890Z,11.20
2018-02-14T09:19:57.842Z,12.00
2018-02-14T09:20:57.792Z,11.60
2018-02-14T09:21:57.748Z,11.60
2018-02-14T09:22:57.695Z,11.90
2018-02-14T09:23:57.647Z,11.70
2018-02-14T09:24:57.600Z,11.50
2018-02-14T09:25:57.548Z,12.20
2018-02-14T09:26:57.501Z,11.80
2018-02-14T09:27:57.451Z,11.30
2018-02-14T09:28:57.406Z,11.90
2018-02-14T09:29:57.354Z,12.30
2018-02-14T09:30:57.308Z,11.70
2018-02-14T09:31:57.258Z,12.00
2018-02-14T09:32:57.211Z,11.20
2018-02-14T09:33:57.163Z,12.20
2018-02-14T09:34:57.114Z,11.20
2018-02-14T09:35:57.064Z,10.60
2018-02-14T09:36:57.026Z,11.10
2018-02-14T09:37:56.969Z,11.40
2018-02-14T09:38:56.922Z,11.50
2018-02-14T09:39:56.874Z,11.20
2018-02-14T09:40:56.825Z,10.90
2018-02-14T09:41:56.780Z,10.10
2018-02-14T09:42:56.732Z,10.20
2018-02-14T09:43:56.679Z,11.20
2018-02-14T09:44:56.630Z,11.10
2018-02-14T09:45:56.583Z,10.40
2018-02-14T09:46:56.532Z,11.60
2018-02-14T09:47:56.484Z,11.00
2018-02-14T09:48:56.436Z,10.80
2018-02-14T09:49:56.391Z,10.90
2018-02-14T09:50:56.341Z,10.70
2018-02-14T09:51:56.293Z,10.60
2018-02-14T09:52:56.243Z,11.50
2018-02-14T09:53:56.194Z,11.00
2018-02-14T09:54:56.148Z,10.60
2018-02-14T09:55:56.103Z,10.50
2018-02-14T09:56:56.054Z,10.90
2018-02-14T09:57:56.006Z,10.60
2018-02-14T09:58:55.955Z,10.80
2018-02-14T09:59:55.920Z,11.00
2018-02-14T10:00:55.856Z,10.90
2018-02-14T10:01:55.813Z,10.50
2018-02-14T10:02:55.760Z,10.40
2018-02-14T10:03:55.720Z,10.60
2018-02-14T10:04:55.665Z,11.00
2018-02-14T10:05:55.618Z,11.10
2018-02-14T10:06:55.571Z,10.40
2018-02-14T10:07:55.524Z,10.80
2018-02-14T10:08:55.473Z,10.80
2018-02-14T10:09:55.429Z,11.20
2018-02-14T10:10:55.378Z,10.50
2018-02-14T10:11:55.356Z,10.70
2018-02-14T10:12:55.282Z,11.10
2018-02-14T10:13:55.235Z,10.30
2018-02-14T10:14:55.185Z,11.00
2018-02-14T10:15:55.147Z,9.90
2018-02-14T10:16:55.093Z,9.90
2018-02-14T10:17:55.042Z,10.30
2018-02-14T10:18:54.999Z,10.50
2018-02-14T10:19:54.949Z,9.50
2018-02-14T10:20:54.900Z,10.30
2018-02-14T10:21:54.855Z,10.20
2018-02-14T10:22:54.805Z,9.90
2018-02-14T10:23:54.758Z,9.90
2018-02-14T10:24:54.709Z,10.70
2018-02-14T10:25:54.660Z,10.40
2018-02-14T10:26:54.620Z,9.60
2018-02-14T10:27:54.565Z,10.20
2018-02-14T10:28:54.517Z,10.30
2018-02-14T10:29:54.473Z,10.10
2018-02-14T10:30:54.425Z,10.40
2018-02-14T10:31:54.377Z,10.00
2018-02-14T10:32:54.338Z,9.40
2018-02-14T10:33:54.281Z,9.60
2018-02-14T10:34:54.233Z,9.70
2018-02-14T10:35:54.187Z,9.80
2018-02-14T10:36:54.138Z,9.40
2018-02-14T10:37:54.092Z,9.40
2018-02-14T10:38:54.046Z,9.30
2018-02-14T10:39:53.998Z,8.80
2018-02-14T10:40:53.947Z,8.90
2018-02-14T10:41:53.902Z,9.00
2018-02-14T10:42:53.860Z,8.50
2018-02-14T10:43:53.806Z,8.80
2018-02-14T10:44:53.757Z,8.20
2018-02-14T10:45:53.710Z,9.00
2018-02-14T10:46:53.666Z,9.10
2018-02-14T10:47:53.623Z,8.00
2018-02-14T10:48:53.568Z,7.50
2018-02-14T10:49:53.525Z,9.00
2018-02-14T10:50:53.475Z,8.30
2018-02-14T10:51:53.429Z,8.10
2018-02-14T10:52:53.385Z,8.60
2018-02-14T10:53:53.333Z,8.40
2018-02-14T10:54:53.285Z,8.30
2018-02-14T10:55:53.238Z,8.80
2018-02-14T10:56:53.192Z,8.50
2018-02-14T10:57:53.146Z,8.20
2018-02-14T10:58:53.097Z,8.20
2018-02-14T10:59:53.050Z,7.80
2018-02-14T11:00:53.004Z,7.70
2018-02-14T11:01:52.957Z,7.40
2018-02-14T11:02:52.907Z,7.30
2018-02-14T11:03:52.861Z,7.50
2018-02-14T11:04:52.818Z,7.30
2018-02-14T11:05:52.776Z,7.60
2018-02-14T11:06:52.724Z,7.50
2018-02-14T11:07:52.674Z,7.50
2018-02-14T11:08:52.630Z,7.10
2018-02-14T11:09:52.577Z,7.40
2018-02-14T11:10:52.534Z,7.10
2018-02-14T11:11:52.485Z,7.20
2018-02-14T11:12:52.438Z,7.20
2018-02-14T11:13:52.389Z,7.20
2018-02-14T11:14:52.344Z,7.40
2018-02-14T11:15:52.302Z,7.40
2018-02-14T11:16:52.253Z,7.90
2018-02-14T11:17:52.204Z,7.50
2018-02-14T11:18:52.155Z,7.60
2018-02-14T11:19:52.111Z,8.10
2018-02-14T11:20:52.063Z,7.40
2018-02-14T11:21:52.014Z,6.80
2018-02-14T11:22:51.969Z,7.50
2018-02-14T11:23:51.917Z,7.40
2018-02-14T11:24:51.883Z,7.20
2018-02-14T11:25:51.827Z,7.40
2018-02-14T11:26:51.800Z,7.30
2018-02-14T11:27:51.731Z,6.90
2018-02-14T11:28:51.695Z,7.60
2018-02-14T11:29:51.636Z,6.90
2018-02-14T11:30:51.590Z,7.20
2018-02-14T11:31:51.539Z,7.30
2018-02-14T11:32:51.492Z,7.40
2018-02-14T11:33:51.446Z,6.90
2018-02-14T11:34:51.396Z,7.50
2018-02-14T11:35:51.351Z,7.20
2018-02-14T11:36:51.303Z,7.20
2018-02-14T11:37:51.258Z,7.80
2018-02-14T11:38:51.210Z,7.30
2018-02-14T11:39:51.159Z,6.90
2018-02-14T11:40:51.113Z,7.70
2018-02-14T11:41:51.065Z,7.80
2018-02-14T11:42:51.021Z,8.00
2018-02-14T11:43:50.971Z,7.40
2018-02-14T11:44:50.923Z,7.70
2018-02-14T11:45:50.880Z,7.40
2018-02-14T11:46:50.831Z,7.20
2018-02-14T11:47:50.783Z,7.00
2018-02-14T11:48:50.735Z,7.80
2018-02-14T11:49:50.787Z,7.30
2018-02-14T11:50:50.638Z,7.20
2018-02-14T11:51:50.591Z,7.40
2018-02-14T11:52:50.548Z,7.40
2018-02-14T11:53:50.499Z,7.40
2018-02-14T11:54:50.448Z,7.80
2018-02-14T11:55:50.403Z,7.60
2018-02-14T11:56:50.358Z,7.70
2018-02-14T11:57:50.314Z,7.60
2018-02-14T11:58:50.262Z,7.60
2018-02-14T11:59:50.219Z,8.00
2018-02-14T12:00:50.203Z,7.60
2018-02-14T12:01:50.120Z,7.10
2018-02-14T12:02:50.075Z,7.30
2018-02-14T12:03:50.028Z,7.70
2018-02-14T12:04:49.980Z,7.80
2018-02-14T12:05:49.931Z,7.20
2018-02-14T12:06:49.886Z,7.10
2018-02-14T12:07:49.840Z,7.10
2018-02-14T12:08:49.798Z,7.20
2018-02-14T12:09:49.746Z,7.50
2018-02-14T12:10:49.697Z,7.90
2018-02-14T12:11:49.651Z,7.80
2018-02-14T12:12:49.601Z,8.30
2018-02-14T12:13:49.557Z,7.20
2018-02-14T12:14:49.509Z,7.30
2018-02-14T12:15:49.463Z,7.30
2018-02-14T12:16:49.414Z,7.00
2018-02-14T12:17:49.376Z,7.50
2018-02-14T12:18:49.324Z,6.90
2018-02-14T12:19:49.276Z,7.80
2018-02-14T12:20:49.228Z,7.60
2018-02-14T12:21:49.184Z,7.30
2018-02-14T12:22:49.136Z,7.60
2018-02-14T12:23:49.091Z,7.80
2018-02-14T12:24:49.042Z,7.60
2018-02-14T12:25:48.997Z,7.40
2018-02-14T12:26:48.952Z,7.90
2018-02-14T12:27:48.908Z,7.70
2018-02-14T12:28:48.860Z,8.10
2018-02-14T12:29:48.811Z,7.70
2018-02-14T12:30:48.763Z,7.40
2018-02-14T12:31:48.721Z,7.60
2018-02-14T12:32:48.671Z,8.10
2018-02-14T12:33:48.626Z,7.80
2018-02-14T12:34:48.582Z,7.90
2018-02-14T12:35:48.548Z,8.10
2018-02-14T12:36:48.485Z,7.70
2018-02-14T12:37:48.443Z,8.10
2018-02-14T12:38:48.400Z,8.10
2018-02-14T12:39:48.349Z,7.70
2018-02-14T12:40:48.305Z,7.50
2018-02-14T12:41:48.263Z,7.60
2018-02-14T12:42:48.216Z,7.70
2018-02-14T12:43:48.166Z,7.60
2018-02-14T12:44:48.120Z,7.40
2018-02-14T12:45:48.076Z,7.80
2018-02-14T12:46:48.027Z,7.80
2018-02-14T12:47:47.980Z,7.70
2018-02-14T12:48:47.937Z,7.80
2018-02-14T12:49:47.892Z,7.30
2018-02-14T12:50:51.199Z,7.20
2018-02-14T12:51:47.802Z,7.20
2018-02-14T12:52:47.754Z,7.70
2018-02-14T12:53:47.721Z,7.40
2018-02-14T12:54:47.665Z,8.00
2018-02-14T12:55:47.619Z,7.50
2018-02-14T12:56:47.571Z,7.20
2018-02-14T12:57:47.538Z,7.30
2018-02-14T12:58:47.482Z,6.90
2018-02-14T12:59:47.437Z,7.80
2018-02-14T13:00:47.391Z,7.50
2018-02-14T13:01:47.345Z,7.10
2018-02-14T13:02:47.306Z,7.80
2018-02-14T13:03:47.261Z,6.80
2018-02-14T13:04:47.220Z,7.80
2018-02-14T13:05:47.169Z,7.60
2018-02-14T13:06:47.122Z,7.20
2018-02-14T13:07:47.080Z,7.50
2018-02-14T13:08:47.035Z,7.50
2018-02-14T13:09:46.988Z,7.60
2018-02-14T13:10:46.943Z,7.40